Terminal Aerodrome Forecast
Issued by NWS North Platte, NE

Home | Current Version | Previous Version | Graphics & Text | Print | Product List | Glossary On
Versions: 1 2 3 4 5 6 7 8 9 10 11 12 13 14 15 16 17 18 19 20 21 22
000
FTUS43 KLBF 130800 AAA
TAFVTN
TAF AMD
KVTN 130843Z 1309/1406 03017G24KT 3SM RA BR OVC015
     FM131100 36025G35KT 6SM -RA BKN025
     FM131200 36025G35KT 4SM -RASN BKN015
      TEMPO 1312/1316 2SM -SN BKN012
     FM131600 36025G35KT 4SM -SN BKN015
     FM131900 36024G33KT P6SM BKN025
     FM132200 35020G30KT P6SM SCT025 BKN080
     FM140100 35016KT P6SM BKN120=

USA.gov is the U.S. government's official web portal to all federal, state and local government web resources and services.